createdAt,value
2023-05-05T00:01:34.225Z,41.09
2023-05-05T00:04:01.387Z,41.19
2023-05-05T00:06:29.119Z,41.25
2023-05-05T00:08:56.400Z,41.13
2023-05-05T00:11:23.743Z,41.07
2023-05-05T00:13:51.622Z,41.32
2023-05-05T00:16:18.906Z,41.45
2023-05-05T00:18:46.133Z,41.33
2023-05-05T00:21:13.321Z,41.32
2023-05-05T00:23:40.482Z,41.35
2023-05-05T00:26:07.932Z,41.38
2023-05-05T00:28:35.102Z,41.48
2023-05-05T00:31:02.327Z,41.51
2023-05-05T00:33:29.582Z,41.42
2023-05-05T00:35:56.766Z,41.56
2023-05-05T00:38:23.828Z,41.57
2023-05-05T00:40:50.977Z,41.59
2023-05-05T00:43:18.149Z,41.52
2023-05-05T00:45:47.930Z,41.75
2023-05-05T00:48:17.103Z,41.58
2023-05-05T00:50:45.336Z,41.72
2023-05-05T00:53:13.329Z,41.72
2023-05-05T00:55:40.735Z,41.83
2023-05-05T00:58:08.225Z,41.82
2023-05-05T01:00:35.378Z,41.77
2023-05-05T01:03:03.375Z,41.81
2023-05-05T01:05:48.061Z,41.75
2023-05-05T01:08:46.970Z,41.85
2023-05-05T01:11:27.228Z,41.87
2023-05-05T01:14:06.192Z,42.02
2023-05-05T01:16:34.795Z,41.95
2023-05-05T01:19:39.775Z,42.15
2023-05-05T01:22:12.000Z,42.12
2023-05-05T01:24:49.563Z,41.95
2023-05-05T01:27:35.521Z,42.24
2023-05-05T01:30:18.270Z,42.18
2023-05-05T01:32:52.122Z,42.02
2023-05-05T01:35:26.026Z,42.05
2023-05-05T01:38:13.500Z,42.19
2023-05-05T01:40:45.269Z,42.06
2023-05-05T01:43:15.391Z,42.17
2023-05-05T01:45:45.141Z,42.33
2023-05-05T01:48:13.810Z,42.19
2023-05-05T01:50:44.207Z,42.18
2023-05-05T01:53:12.133Z,42.41
2023-05-05T01:55:40.793Z,42.49
2023-05-05T01:58:09.701Z,42.35
2023-05-05T02:00:38.725Z,42.49
2023-05-05T02:03:08.605Z,42.52
2023-05-05T02:05:39.057Z,42.41
2023-05-05T02:08:08.907Z,42.60
2023-05-05T02:10:41.031Z,42.49
2023-05-05T02:13:10.682Z,42.53
2023-05-05T02:15:39.505Z,42.67
2023-05-05T02:18:07.615Z,42.63
2023-05-05T02:20:37.664Z,42.75
2023-05-05T02:23:06.555Z,42.56
2023-05-05T02:25:49.080Z,42.77
2023-05-05T02:28:21.876Z,42.58
2023-05-05T02:30:59.987Z,42.70
2023-05-05T02:33:32.714Z,42.74
2023-05-05T02:36:10.551Z,42.85
2023-05-05T02:38:44.109Z,42.73
2023-05-05T02:41:16.790Z,43.01
2023-05-05T02:43:48.704Z,42.95
2023-05-05T02:46:17.957Z,42.99
2023-05-05T02:48:46.369Z,42.81
2023-05-05T02:51:13.589Z,42.93
2023-05-05T02:53:41.235Z,43.11
2023-05-05T02:56:20.286Z,42.92
2023-05-05T02:58:51.307Z,43.14
2023-05-05T03:01:51.195Z,42.82
2023-05-05T03:04:28.094Z,43.05
2023-05-05T03:06:59.602Z,43.08
2023-05-05T03:09:39.977Z,43.09
2023-05-05T03:12:10.763Z,43.16
2023-05-05T03:14:48.806Z,43.20
2023-05-05T03:17:18.584Z,43.36
2023-05-05T03:19:47.175Z,43.21
2023-05-05T03:22:14.908Z,43.31
2023-05-05T03:24:49.872Z,43.54
2023-05-05T03:27:17.688Z,43.45
2023-05-05T03:29:44.813Z,43.51
2023-05-05T03:32:13.676Z,43.44
2023-05-05T03:34:41.314Z,43.61
2023-05-05T03:37:09.092Z,43.68
2023-05-05T03:39:36.841Z,43.54
2023-05-05T03:42:04.081Z,43.49
2023-05-05T03:44:32.504Z,43.70
2023-05-05T03:46:59.744Z,43.88
2023-05-05T03:49:27.215Z,43.63
2023-05-05T03:51:54.633Z,43.85
2023-05-05T03:54:21.851Z,43.91
2023-05-05T03:56:48.994Z,43.90
2023-05-05T03:59:16.190Z,43.83
2023-05-05T04:01:45.209Z,43.89
2023-05-05T04:04:12.519Z,43.99
2023-05-05T04:06:39.872Z,43.89
2023-05-05T04:09:07.329Z,43.95
2023-05-05T04:11:34.602Z,44.17
2023-05-05T04:14:02.153Z,44.13
2023-05-05T04:16:29.710Z,44.14
2023-05-05T04:18:58.024Z,44.27
2023-05-05T04:21:25.241Z,44.14
2023-05-05T04:23:52.937Z,44.26
2023-05-05T04:26:21.112Z,44.31
2023-05-05T04:28:49.570Z,44.26
2023-05-05T04:31:17.155Z,44.35
2023-05-05T04:33:44.547Z,44.35
2023-05-05T04:36:12.110Z,44.70
2023-05-05T04:38:39.336Z,44.57
2023-05-05T04:41:06.857Z,44.60
2023-05-05T04:43:35.155Z,44.70
2023-05-05T04:46:03.133Z,44.80
2023-05-05T04:48:31.737Z,44.49
2023-05-05T04:50:58.856Z,44.57
2023-05-05T04:53:26.021Z,44.67
2023-05-05T04:55:53.548Z,44.94
2023-05-05T04:58:20.827Z,44.87
2023-05-05T05:00:47.977Z,44.82
2023-05-05T05:03:15.197Z,44.60
2023-05-05T05:05:42.350Z,44.94
2023-05-05T05:08:09.404Z,44.82
2023-05-05T05:10:36.960Z,44.82
2023-05-05T05:13:04.067Z,44.93
2023-05-05T05:15:31.301Z,44.94
2023-05-05T05:17:58.498Z,45.16
2023-05-05T05:20:25.796Z,45.13
2023-05-05T05:22:52.989Z,45.07
2023-05-05T05:25:20.776Z,45.17
2023-05-05T05:27:55.331Z,45.07
2023-05-05T05:30:33.947Z,45.28
2023-05-05T05:33:02.299Z,45.22
2023-05-05T05:35:30.144Z,45.33
2023-05-05T05:37:57.405Z,45.30
2023-05-05T05:40:25.517Z,45.56
2023-05-05T05:42:52.654Z,45.61
2023-05-05T05:45:19.875Z,45.74
2023-05-05T05:47:47.213Z,45.68
2023-05-05T05:50:14.926Z,45.76
2023-05-05T05:52:42.620Z,45.94
2023-05-05T05:55:10.233Z,45.87
2023-05-05T05:57:37.455Z,45.84
2023-05-05T06:00:06.344Z,45.98
2023-05-05T06:02:39.256Z,45.97
2023-05-05T06:05:08.980Z,46.09
2023-05-05T06:07:36.372Z,46.12
2023-05-05T06:10:18.571Z,46.06
2023-05-05T06:12:51.290Z,46.20
2023-05-05T06:15:18.819Z,46.37
2023-05-05T06:17:46.222Z,46.10
2023-05-05T06:20:13.998Z,46.17
2023-05-05T06:22:41.417Z,46.30
2023-05-05T06:25:09.158Z,46.19
2023-05-05T06:27:37.251Z,46.43
2023-05-05T06:30:04.884Z,46.47
2023-05-05T06:32:32.030Z,46.57
2023-05-05T06:34:59.172Z,46.52
2023-05-05T06:37:26.478Z,46.45
2023-05-05T06:39:53.616Z,46.65
2023-05-05T06:42:20.610Z,46.53
2023-05-05T06:44:47.770Z,46.82
2023-05-05T06:47:15.020Z,46.68
2023-05-05T06:49:42.213Z,46.82
2023-05-05T06:52:09.419Z,46.82
2023-05-05T06:54:36.569Z,46.64
2023-05-05T06:57:03.865Z,46.94
2023-05-05T06:59:30.924Z,46.91
2023-05-05T07:01:58.027Z,46.84
2023-05-05T07:04:25.154Z,46.95
2023-05-05T07:06:52.325Z,46.94
2023-05-05T07:09:20.380Z,47.14
2023-05-05T07:11:47.524Z,47.22
2023-05-05T07:14:14.640Z,46.99
2023-05-05T07:16:41.876Z,47.24
2023-05-05T07:19:08.999Z,47.19
2023-05-05T07:21:36.751Z,47.23
2023-05-05T07:24:04.186Z,47.32
2023-05-05T07:26:31.891Z,47.26
2023-05-05T07:28:59.236Z,47.32
2023-05-05T07:31:26.778Z,47.26
2023-05-05T07:33:54.062Z,47.28
2023-05-05T07:36:21.333Z,47.27
2023-05-05T07:38:48.523Z,47.39
2023-05-05T07:41:15.948Z,47.32
2023-05-05T07:43:44.657Z,47.41
2023-05-05T07:46:12.561Z,47.42
2023-05-05T07:48:41.504Z,47.36
2023-05-05T07:51:09.404Z,47.38
2023-05-05T07:53:37.211Z,47.47
2023-05-05T07:56:04.369Z,47.59
2023-05-05T07:58:31.523Z,47.58
2023-05-05T08:00:58.744Z,47.37
2023-05-05T08:03:26.015Z,47.54
2023-05-05T08:05:54.677Z,47.51
2023-05-05T08:08:25.104Z,47.67
2023-05-05T08:10:53.355Z,47.54
2023-05-05T08:13:20.767Z,47.59
2023-05-05T08:15:47.966Z,47.67
2023-05-05T08:18:15.199Z,47.69
2023-05-05T08:20:42.419Z,47.77
2023-05-05T08:23:09.526Z,47.83
2023-05-05T08:25:36.876Z,47.75
2023-05-05T08:28:03.988Z,47.86
2023-05-05T08:30:31.400Z,47.89
2023-05-05T08:32:59.130Z,47.85
2023-05-05T08:35:26.382Z,47.82
2023-05-05T08:37:53.524Z,47.88
2023-05-05T08:40:25.156Z,47.90
2023-05-05T08:42:52.156Z,47.73
2023-05-05T08:45:19.302Z,47.90
2023-05-05T08:47:46.380Z,47.88
2023-05-05T08:50:14.258Z,47.86
2023-05-05T08:52:45.951Z,47.86
2023-05-05T08:55:34.972Z,47.77
2023-05-05T08:58:05.243Z,48.03
2023-05-05T09:00:33.394Z,47.89
2023-05-05T09:03:01.616Z,48.23
2023-05-05T09:05:28.955Z,48.08
2023-05-05T09:07:56.068Z,48.21
2023-05-05T09:10:25.555Z,48.26
2023-05-05T09:12:52.782Z,48.20
2023-05-05T09:15:19.902Z,48.27
2023-05-05T09:17:47.190Z,48.10
2023-05-05T09:20:15.342Z,48.31
2023-05-05T09:22:45.038Z,48.22
2023-05-05T09:25:14.421Z,48.16
2023-05-05T09:27:47.953Z,48.26
2023-05-05T09:30:17.112Z,48.05
2023-05-05T09:32:46.604Z,48.03
2023-05-05T09:35:14.524Z,48.08
2023-05-05T09:37:42.488Z,47.93
2023-05-05T09:40:10.588Z,48.12
2023-05-05T09:42:38.810Z,48.13
2023-05-05T09:45:18.011Z,48.22
2023-05-05T09:47:48.837Z,47.99
2023-05-05T09:50:18.974Z,47.94
2023-05-05T09:53:00.775Z,47.87
2023-05-05T09:55:29.002Z,47.77
2023-05-05T09:57:56.344Z,47.75
2023-05-05T10:00:38.569Z,47.72
2023-05-05T10:03:05.979Z,47.79
2023-05-05T10:05:33.170Z,47.97
2023-05-05T10:08:13.595Z,47.88
2023-05-05T10:11:03.019Z,47.90
2023-05-05T10:13:35.581Z,47.87
2023-05-05T10:16:04.539Z,47.72
2023-05-05T10:18:32.672Z,47.76
2023-05-05T10:21:01.824Z,47.55
2023-05-05T10:23:39.604Z,47.70
2023-05-05T10:26:08.448Z,47.84
2023-05-05T10:28:45.968Z,47.88
2023-05-05T10:31:41.740Z,47.63
2023-05-05T10:34:21.468Z,47.55
2023-05-05T10:36:49.702Z,47.90
2023-05-05T10:39:19.949Z,47.81
2023-05-05T10:41:48.322Z,47.74
2023-05-05T10:44:16.351Z,47.72
2023-05-05T10:46:45.067Z,47.82
2023-05-05T10:49:41.558Z,47.64
2023-05-05T10:52:28.823Z,47.88
2023-05-05T10:55:11.616Z,47.93
2023-05-05T10:57:41.838Z,47.81
2023-05-05T11:00:10.298Z,47.94
2023-05-05T11:02:37.751Z,47.82
2023-05-05T11:05:17.793Z,47.74
2023-05-05T11:07:46.624Z,47.79
2023-05-05T11:10:15.342Z,47.84
2023-05-05T11:13:02.657Z,47.57
2023-05-05T11:15:30.407Z,47.71
2023-05-05T11:18:05.862Z,47.80
2023-05-05T11:20:37.695Z,47.80
2023-05-05T11:23:05.394Z,47.73
2023-05-05T11:25:42.231Z,47.72
2023-05-05T11:28:21.288Z,47.74
2023-05-05T11:30:58.730Z,47.78
2023-05-05T11:33:31.284Z,47.68
2023-05-05T11:35:58.447Z,47.67
2023-05-05T11:38:50.019Z,47.68
2023-05-05T11:41:32.739Z,47.54
2023-05-05T11:44:16.032Z,47.45
2023-05-05T11:46:54.596Z,47.55
2023-05-05T11:49:29.695Z,47.47
2023-05-05T11:52:11.224Z,47.48
2023-05-05T11:54:47.943Z,47.50
2023-05-05T11:57:17.680Z,47.52
2023-05-05T11:59:53.648Z,47.48
2023-05-05T12:02:21.949Z,47.31
2023-05-05T12:04:50.681Z,47.40
2023-05-05T12:07:20.239Z,47.40
2023-05-05T12:09:48.423Z,47.37
2023-05-05T12:12:16.279Z,47.44
2023-05-05T12:14:52.617Z,47.47
2023-05-05T12:17:21.050Z,47.71
2023-05-05T12:19:52.070Z,47.48
2023-05-05T12:22:24.616Z,47.43
2023-05-05T12:24:59.364Z,47.36
2023-05-05T12:27:28.170Z,47.31
2023-05-05T12:29:57.345Z,47.20
2023-05-05T12:32:25.815Z,47.40
2023-05-05T12:34:54.734Z,47.12
2023-05-05T12:37:22.632Z,46.96
2023-05-05T12:39:50.854Z,47.14
2023-05-05T12:42:18.690Z,46.99
2023-05-05T12:44:46.797Z,46.97
2023-05-05T12:47:14.614Z,46.93
2023-05-05T12:49:45.990Z,46.92
2023-05-05T12:52:14.449Z,46.97
2023-05-05T12:54:57.570Z,47.05
2023-05-05T12:57:25.402Z,46.99
2023-05-05T12:59:53.453Z,46.89
2023-05-05T13:02:21.211Z,46.84
2023-05-05T13:04:53.466Z,47.06
2023-05-05T13:07:22.019Z,46.80
2023-05-05T13:09:50.373Z,46.96
2023-05-05T13:12:18.489Z,46.63
2023-05-05T13:14:46.805Z,46.45
2023-05-05T13:17:14.613Z,46.57
2023-05-05T13:19:42.740Z,46.45
2023-05-05T13:22:10.326Z,46.53
2023-05-05T13:24:49.565Z,46.67
2023-05-05T13:27:19.764Z,46.59
2023-05-05T13:29:46.915Z,46.65
2023-05-05T13:32:14.082Z,46.73
2023-05-05T13:34:42.617Z,46.52
2023-05-05T13:37:09.889Z,46.25
2023-05-05T13:39:37.115Z,46.13
2023-05-05T13:42:04.297Z,46.32
2023-05-05T13:44:31.573Z,46.08
2023-05-05T13:46:58.849Z,46.23
2023-05-05T13:49:25.878Z,46.25
2023-05-05T13:51:52.954Z,46.19
2023-05-05T13:54:20.096Z,46.09
2023-05-05T13:56:47.290Z,46.05
2023-05-05T13:59:14.425Z,46.09
2023-05-05T14:01:41.618Z,46.19
2023-05-05T14:04:08.790Z,46.04
2023-05-05T14:06:36.294Z,45.89
2023-05-05T14:09:06.288Z,45.90
2023-05-05T14:11:33.859Z,45.85
2023-05-05T14:14:01.537Z,45.86
2023-05-05T14:16:28.683Z,45.63
2023-05-05T14:18:55.880Z,45.63
2023-05-05T14:21:22.976Z,45.63
2023-05-05T14:23:50.161Z,45.65
2023-05-05T14:26:17.327Z,45.59
2023-05-05T14:28:44.694Z,45.57
2023-05-05T14:31:12.145Z,45.50
2023-05-05T14:33:39.396Z,45.27
2023-05-05T14:36:06.824Z,45.38
2023-05-05T14:38:34.066Z,45.40
2023-05-05T14:41:01.535Z,45.39
2023-05-05T14:43:28.651Z,45.50
2023-05-05T14:45:58.294Z,45.52
2023-05-05T14:48:25.379Z,45.38
2023-05-05T14:50:52.486Z,45.26
2023-05-05T14:53:19.700Z,45.40
2023-05-05T14:55:46.822Z,45.36
2023-05-05T14:58:13.914Z,45.37
2023-05-05T15:00:41.083Z,45.36
2023-05-05T15:03:08.328Z,45.33
2023-05-05T15:05:35.748Z,45.35
2023-05-05T15:08:02.932Z,45.22
2023-05-05T15:10:30.008Z,45.16
2023-05-05T15:12:57.301Z,44.85
2023-05-05T15:15:24.497Z,45.08
2023-05-05T15:17:51.622Z,45.13
2023-05-05T15:20:18.958Z,44.88
2023-05-05T15:22:47.866Z,44.86
2023-05-05T15:25:16.339Z,45.12
2023-05-05T15:27:43.412Z,44.88
2023-05-05T15:30:11.940Z,44.86
2023-05-05T15:32:39.072Z,44.91
2023-05-05T15:35:06.995Z,44.86
2023-05-05T15:37:34.659Z,44.79
2023-05-05T15:40:01.880Z,44.59
2023-05-05T15:42:28.903Z,44.52
2023-05-05T15:44:56.029Z,44.66
2023-05-05T15:47:23.152Z,44.73
2023-05-05T15:49:50.227Z,44.61
2023-05-05T15:52:17.534Z,44.45
2023-05-05T15:54:44.768Z,44.45
2023-05-05T15:57:11.941Z,44.49
2023-05-05T15:59:39.044Z,44.38
2023-05-05T16:02:06.236Z,44.37
2023-05-05T16:04:33.372Z,44.53
2023-05-05T16:07:01.509Z,44.21
2023-05-05T16:09:28.614Z,44.20
2023-05-05T16:11:55.796Z,44.41
2023-05-05T16:14:22.982Z,44.20
2023-05-05T16:16:50.214Z,44.21
2023-05-05T16:19:18.202Z,44.11
2023-05-05T16:21:45.570Z,43.97
2023-05-05T16:24:16.463Z,44.20
2023-05-05T16:26:44.307Z,44.11
2023-05-05T16:29:12.275Z,44.07
2023-05-05T16:31:39.559Z,43.96
2023-05-05T16:34:07.262Z,43.81
2023-05-05T16:36:34.543Z,44.04
2023-05-05T16:39:01.806Z,44.11
2023-05-05T16:41:29.031Z,43.89
2023-05-05T16:43:56.414Z,44.06
2023-05-05T16:46:23.666Z,43.94
2023-05-05T16:48:50.845Z,44.02
2023-05-05T16:51:17.932Z,44.02
2023-05-05T16:53:45.514Z,43.96
2023-05-05T16:56:13.833Z,43.76
2023-05-05T16:58:41.041Z,43.95
2023-05-05T17:01:08.200Z,43.66
2023-05-05T17:03:36.044Z,43.80
2023-05-05T17:06:03.398Z,43.87
2023-05-05T17:08:30.788Z,43.81
2023-05-05T17:10:58.355Z,43.89
2023-05-05T17:13:25.451Z,43.93
2023-05-05T17:15:52.676Z,43.74
2023-05-05T17:18:21.888Z,43.60
2023-05-05T17:20:49.453Z,43.74
2023-05-05T17:23:16.794Z,43.62
2023-05-05T17:25:43.981Z,43.76
2023-05-05T17:28:11.089Z,43.56
2023-05-05T17:30:38.206Z,43.63
2023-05-05T17:33:05.515Z,43.56
2023-05-05T17:35:32.771Z,43.62
2023-05-05T17:37:59.895Z,43.73
2023-05-05T17:40:27.074Z,43.67
2023-05-05T17:42:54.087Z,43.65
2023-05-05T17:45:21.159Z,43.75
2023-05-05T17:47:48.343Z,43.59
2023-05-05T17:50:15.527Z,43.91
2023-05-05T17:52:43.965Z,43.85
2023-05-05T17:55:11.535Z,43.75
2023-05-05T17:57:38.917Z,43.71
2023-05-05T18:00:07.228Z,43.57
2023-05-05T18:02:40.052Z,43.87
2023-05-05T18:05:08.331Z,43.88
2023-05-05T18:07:35.663Z,43.77
2023-05-05T18:10:02.823Z,43.77
2023-05-05T18:12:29.971Z,43.79
2023-05-05T18:14:57.052Z,43.65
2023-05-05T18:17:24.144Z,43.69
2023-05-05T18:19:51.297Z,43.60
2023-05-05T18:22:18.361Z,43.72
2023-05-05T18:24:46.831Z,43.72
2023-05-05T18:27:13.992Z,43.64
2023-05-05T18:29:41.111Z,43.75
2023-05-05T18:32:08.258Z,43.71
2023-05-05T18:34:35.478Z,43.60
2023-05-05T18:37:02.537Z,43.57
2023-05-05T18:39:29.687Z,43.87
2023-05-05T18:41:56.916Z,43.80
2023-05-05T18:44:24.172Z,43.70
2023-05-05T18:46:51.597Z,43.88
2023-05-05T18:49:18.708Z,43.64
2023-05-05T18:51:45.774Z,43.81
2023-05-05T18:54:12.905Z,43.79
2023-05-05T18:56:40.062Z,43.65
2023-05-05T18:59:07.914Z,43.68
2023-05-05T19:01:35.000Z,43.83
2023-05-05T19:04:02.230Z,43.79
2023-05-05T19:06:29.438Z,43.75
2023-05-05T19:08:56.929Z,43.66
2023-05-05T19:11:24.795Z,43.72
2023-05-05T19:13:52.106Z,43.63
2023-05-05T19:16:19.306Z,43.70
2023-05-05T19:18:46.434Z,43.75
2023-05-05T19:21:13.828Z,43.61
2023-05-05T19:23:41.108Z,43.70
2023-05-05T19:26:08.274Z,43.59
2023-05-05T19:28:35.420Z,43.55
2023-05-05T19:31:02.543Z,43.57
2023-05-05T19:33:29.713Z,43.63
2023-05-05T19:35:56.793Z,43.60
2023-05-05T19:38:24.101Z,43.67
2023-05-05T19:40:51.218Z,43.56
2023-05-05T19:43:18.228Z,43.50
2023-05-05T19:45:45.277Z,43.57
2023-05-05T19:48:12.366Z,43.68
2023-05-05T19:50:39.534Z,43.51
2023-05-05T19:53:06.729Z,43.63
2023-05-05T19:55:33.847Z,43.53
2023-05-05T19:58:00.982Z,43.61
2023-05-05T20:00:28.168Z,43.67
2023-05-05T20:02:55.325Z,43.61
2023-05-05T20:05:22.548Z,43.38
2023-05-05T20:07:50.565Z,43.46
2023-05-05T20:10:17.990Z,43.56
2023-05-05T20:12:51.527Z,43.46
2023-05-05T20:15:20.714Z,43.38
2023-05-05T20:17:48.910Z,43.42
2023-05-05T20:20:22.040Z,43.45
2023-05-05T20:22:49.667Z,43.39
2023-05-05T20:25:17.133Z,43.45
2023-05-05T20:27:45.892Z,43.45
2023-05-05T20:30:13.506Z,43.54
2023-05-05T20:32:41.521Z,43.47
2023-05-05T20:35:09.357Z,43.42
2023-05-05T20:37:36.749Z,43.47
2023-05-05T20:40:04.162Z,43.48
2023-05-05T20:42:31.248Z,43.19
2023-05-05T20:45:03.309Z,43.14
2023-05-05T20:47:30.373Z,43.27
2023-05-05T20:49:57.691Z,43.48
2023-05-05T20:52:26.390Z,43.24
2023-05-05T20:54:53.376Z,43.29
2023-05-05T20:57:20.565Z,43.13
2023-05-05T20:59:49.387Z,43.28
2023-05-05T21:02:17.590Z,43.36
2023-05-05T21:04:45.759Z,43.32
2023-05-05T21:07:13.101Z,43.17
2023-05-05T21:09:47.329Z,43.25
2023-05-05T21:12:20.077Z,43.08
2023-05-05T21:14:47.212Z,43.20
2023-05-05T21:17:14.365Z,43.16
2023-05-05T21:19:41.517Z,43.23
2023-05-05T21:22:08.655Z,43.14
2023-05-05T21:24:35.703Z,43.24
2023-05-05T21:27:02.781Z,43.30
2023-05-05T21:29:34.334Z,43.21
2023-05-05T21:32:01.357Z,43.07
2023-05-05T21:34:28.482Z,43.19
2023-05-05T21:36:57.204Z,43.14
2023-05-05T21:39:24.475Z,43.19
2023-05-05T21:41:51.863Z,43.17
2023-05-05T21:44:19.017Z,42.87
2023-05-05T21:46:46.822Z,42.91
2023-05-05T21:49:16.031Z,43.12
2023-05-05T21:51:44.352Z,42.82
2023-05-05T21:54:11.537Z,42.89
2023-05-05T21:56:38.954Z,42.99
2023-05-05T21:59:06.395Z,42.98
2023-05-05T22:01:33.602Z,42.94
2023-05-05T22:04:01.024Z,43.10
2023-05-05T22:06:28.426Z,42.92
2023-05-05T22:08:57.092Z,42.82
2023-05-05T22:11:24.262Z,42.85
2023-05-05T22:13:51.947Z,42.87
2023-05-05T22:16:19.293Z,42.91
2023-05-05T22:18:46.939Z,43.02
2023-05-05T22:21:14.155Z,42.96
2023-05-05T22:23:44.444Z,42.82
2023-05-05T22:26:11.962Z,42.98
2023-05-05T22:28:39.117Z,42.86
2023-05-05T22:31:06.283Z,42.83
2023-05-05T22:33:33.300Z,42.73
2023-05-05T22:36:00.825Z,42.74
2023-05-05T22:38:27.835Z,42.89
2023-05-05T22:40:57.399Z,42.63
2023-05-05T22:43:25.398Z,42.69
2023-05-05T22:45:52.763Z,42.79
2023-05-05T22:48:19.811Z,42.80
2023-05-05T22:50:47.071Z,42.73
2023-05-05T22:53:14.164Z,42.77
2023-05-05T22:55:41.266Z,42.65
2023-05-05T22:58:08.413Z,42.88
2023-05-05T23:00:35.846Z,42.84
2023-05-05T23:03:02.996Z,42.65
2023-05-05T23:05:30.450Z,42.68
2023-05-05T23:08:00.002Z,42.79
2023-05-05T23:10:27.750Z,42.60
2023-05-05T23:12:54.871Z,42.62
2023-05-05T23:15:22.028Z,42.65
2023-05-05T23:17:49.133Z,42.71
2023-05-05T23:20:16.415Z,42.73
2023-05-05T23:22:43.495Z,42.69
2023-05-05T23:25:10.873Z,42.62
2023-05-05T23:27:40.043Z,42.47
2023-05-05T23:30:08.776Z,42.65
2023-05-05T23:32:35.987Z,42.58
2023-05-05T23:35:03.156Z,42.64
2023-05-05T23:37:30.257Z,42.67
2023-05-05T23:39:57.316Z,42.68
2023-05-05T23:42:24.690Z,42.61
2023-05-05T23:44:51.866Z,42.65
2023-05-05T23:47:18.998Z,42.44
2023-05-05T23:49:46.448Z,42.47
2023-05-05T23:52:13.596Z,42.46
2023-05-05T23:54:41.023Z,42.58
2023-05-05T23:57:08.144Z,42.60
2023-05-05T23:59:35.251Z,42.52
